sensor_id;sensor_type;location;lat;lon;timestamp;pressure;altitude;pressure_sealevel;temperature;humidity
50672;BME280;46021;55.882;37.654;2023-02-15T00:01:32;99840.38;;;-3.27;73.24
50672;BME280;46021;55.882;37.654;2023-02-15T00:04:00;99822.31;;;-3.37;74.24
50672;BME280;46021;55.882;37.654;2023-02-15T00:06:29;99834.34;;;-3.31;74.43
50672;BME280;46021;55.882;37.654;2023-02-15T00:08:56;99828.38;;;-3.31;73.36
50672;BME280;46021;55.882;37.654;2023-02-15T00:11:24;99842.81;;;-3.32;73.79
50672;BME280;46021;55.882;37.654;2023-02-15T00:14:06;99837.78;;;-3.29;74.38
50672;BME280;46021;55.882;37.654;2023-02-15T00:16:34;99837.88;;;-3.26;73.69
50672;BME280;46021;55.882;37.654;2023-02-15T00:19:02;99838.75;;;-3.25;73.48
50672;BME280;46021;55.882;37.654;2023-02-15T00:21:32;99840.94;;;-3.39;74.07
50672;BME280;46021;55.882;37.654;2023-02-15T00:24:00;99840.13;;;-3.37;73.84
50672;BME280;46021;55.882;37.654;2023-02-15T00:26:28;99830.97;;;-3.30;73.46
50672;BME280;46021;55.882;37.654;2023-02-15T00:28:56;99831.63;;;-3.37;74.24
50672;BME280;46021;55.882;37.654;2023-02-15T00:31:26;99841.22;;;-3.28;73.02
50672;BME280;46021;55.882;37.654;2023-02-15T00:33:55;99842.97;;;-3.26;73.19
50672;BME280;46021;55.882;37.654;2023-02-15T00:36:22;99825.78;;;-3.33;74.24
50672;BME280;46021;55.882;37.654;2023-02-15T00:38:50;99841.28;;;-3.27;74.28
50672;BME280;46021;55.882;37.654;2023-02-15T00:41:18;99825.84;;;-3.31;73.35
50672;BME280;46021;55.882;37.654;2023-02-15T00:43:45;99837.78;;;-3.29;73.67
50672;BME280;46021;55.882;37.654;2023-02-15T00:46:12;99842.81;;;-3.32;73.75
50672;BME280;46021;55.882;37.654;2023-02-15T00:48:39;99852.22;;;-3.29;73.76
50672;BME280;46021;55.882;37.654;2023-02-15T00:51:06;99844.53;;;-3.31;73.91
50672;BME280;46021;55.882;37.654;2023-02-15T00:53:33;99848.69;;;-3.36;73.66
50672;BME280;46021;55.882;37.654;2023-02-15T00:56:02;99846.97;;;-3.36;73.94
50672;BME280;46021;55.882;37.654;2023-02-15T00:58:29;99856.31;;;-3.36;73.16
50672;BME280;46021;55.882;37.654;2023-02-15T01:01:02;99847.84;;;-3.35;73.38
50672;BME280;46021;55.882;37.654;2023-02-15T01:03:30;99858.03;;;-3.35;74.03
50672;BME280;46021;55.882;37.654;2023-02-15T01:05:57;99852.78;;;-3.41;73.22
50672;BME280;46021;55.882;37.654;2023-02-15T01:08:26;99857.13;;;-3.37;74.34
50672;BME280;46021;55.882;37.654;2023-02-15T01:10:53;99861.31;;;-3.39;73.32
50672;BME280;46021;55.882;37.654;2023-02-15T01:13:22;99858.94;;;-3.33;74.08
50672;BME280;46021;55.882;37.654;2023-02-15T01:15:53;99864.72;;;-3.40;72.87
50672;BME280;46021;55.882;37.654;2023-02-15T01:18:20;99867.31;;;-3.37;73.08
50672;BME280;46021;55.882;37.654;2023-02-15T01:20:48;99871.59;;;-3.36;74.02
50672;BME280;46021;55.882;37.654;2023-02-15T01:23:16;99858.81;;;-3.38;74.16
50672;BME280;46021;55.882;37.654;2023-02-15T01:25:45;99868.16;;;-3.38;73.38
50672;BME280;46021;55.882;37.654;2023-02-15T01:28:12;99866.31;;;-3.42;72.83
50672;BME280;46021;55.882;37.654;2023-02-15T01:30:41;99847.69;;;-3.41;72.72
50672;BME280;46021;55.882;37.654;2023-02-15T01:33:09;99856.19;;;-3.41;73.26
50672;BME280;46021;55.882;37.654;2023-02-15T01:35:44;99867.28;;;-3.39;73.14
50672;BME280;46021;55.882;37.654;2023-02-15T01:38:14;99866.50;;;-3.36;73.24
50672;BME280;46021;55.882;37.654;2023-02-15T01:40:41;99870.88;;;-3.32;73.03
50672;BME280;46021;55.882;37.654;2023-02-15T01:43:10;99868.38;;;-3.30;72.23
50672;BME280;46021;55.882;37.654;2023-02-15T01:45:38;99872.72;;;-3.26;72.67
50672;BME280;46021;55.882;37.654;2023-02-15T01:48:18;99864.63;;;-3.43;72.57
50672;BME280;46021;55.882;37.654;2023-02-15T01:50:50;99872.38;;;-3.39;71.19
50672;BME280;46021;55.882;37.654;2023-02-15T01:53:22;99871.59;;;-3.36;72.62
50672;BME280;46021;55.882;37.654;2023-02-15T01:55:55;99880.00;;;-3.40;71.44
50672;BME280;46021;55.882;37.654;2023-02-15T01:58:25;99878.22;;;-3.43;71.76
50672;BME280;46021;55.882;37.654;2023-02-15T02:00:57;99859.41;;;-3.46;71.92
50672;BME280;46021;55.882;37.654;2023-02-15T02:03:38;99871.59;;;-3.36;71.85
50672;BME280;46021;55.882;37.654;2023-02-15T02:06:06;99870.72;;;-3.37;72.19
50672;BME280;46021;55.882;37.654;2023-02-15T02:08:34;99862.03;;;-3.45;71.82
50672;BME280;46021;55.882;37.654;2023-02-15T02:11:01;99879.81;;;-3.46;71.61
50672;BME280;46021;55.882;37.654;2023-02-15T02:13:28;99869.44;;;-3.53;71.01
50672;BME280;46021;55.882;37.654;2023-02-15T02:16:21;99890.84;;;-3.47;70.97
50672;BME280;46021;55.882;37.654;2023-02-15T02:19:04;99887.41;;;-3.48;72.11
50672;BME280;46021;55.882;37.654;2023-02-15T02:22:08;99881.03;;;-3.64;70.90
50672;BME280;46021;55.882;37.654;2023-02-15T02:25:04;99892.03;;;-3.65;70.30
50672;BME280;46021;55.882;37.654;2023-02-15T02:27:39;99891.28;;;-3.62;71.00
50672;BME280;46021;55.882;37.654;2023-02-15T02:30:45;99886.34;;;-3.56;71.05
50672;BME280;46021;55.882;37.654;2023-02-15T02:33:35;99886.03;;;-3.67;71.03
50672;BME280;46021;55.882;37.654;2023-02-15T02:36:15;99887.03;;;-3.62;70.56
50672;BME280;46021;55.882;37.654;2023-02-15T02:38:52;99894.56;;;-3.65;70.48
50672;BME280;46021;55.882;37.654;2023-02-15T02:41:30;99892.97;;;-3.63;70.37
50672;BME280;46021;55.882;37.654;2023-02-15T02:44:02;99894.66;;;-3.62;69.84
50672;BME280;46021;55.882;37.654;2023-02-15T02:46:34;99901.41;;;-3.64;70.41
50672;BME280;46021;55.882;37.654;2023-02-15T02:49:05;99895.41;;;-3.66;69.54
50672;BME280;46021;55.882;37.654;2023-02-15T02:51:32;99895.50;;;-3.63;70.45
50672;BME280;46021;55.882;37.654;2023-02-15T02:54:01;99901.41;;;-3.64;70.62
50672;BME280;46021;55.882;37.654;2023-02-15T02:56:34;99909.16;;;-3.59;70.94
50672;BME280;46021;55.882;37.654;2023-02-15T02:59:06;99907.56;;;-3.56;69.98
50672;BME280;46021;55.882;37.654;2023-02-15T03:01:39;99898.06;;;-3.63;70.36
50672;BME280;46021;55.882;37.654;2023-02-15T03:04:12;99908.25;;;-3.63;71.00
50672;BME280;46021;55.882;37.654;2023-02-15T03:06:44;99908.16;;;-3.66;71.00
50672;BME280;46021;55.882;37.654;2023-02-15T03:09:23;99902.94;;;-3.69;69.91
50672;BME280;46021;55.882;37.654;2023-02-15T03:12:01;99914.03;;;-3.68;70.34
50672;BME280;46021;55.882;37.654;2023-02-15T03:14:31;99914.78;;;-3.71;70.65
50672;BME280;46021;55.882;37.654;2023-02-15T03:16:58;99900.19;;;-3.77;70.45
50672;BME280;46021;55.882;37.654;2023-02-15T03:19:30;99918.19;;;-3.70;70.20
50672;BME280;46021;55.882;37.654;2023-02-15T03:22:01;99921.44;;;-3.76;70.04
50672;BME280;46021;55.882;37.654;2023-02-15T03:24:36;99930.00;;;-3.74;69.98
50672;BME280;46021;55.882;37.654;2023-02-15T03:27:10;99923.31;;;-3.69;70.38
50672;BME280;46021;55.882;37.654;2023-02-15T03:29:39;99920.78;;;-3.69;70.82
50672;BME280;46021;55.882;37.654;2023-02-15T03:32:09;99918.16;;;-3.72;70.85
50672;BME280;46021;55.882;37.654;2023-02-15T03:34:39;99930.78;;;-3.75;71.14
50672;BME280;46021;55.882;37.654;2023-02-15T03:37:10;99921.63;;;-3.70;70.78
50672;BME280;46021;55.882;37.654;2023-02-15T03:39:44;99924.06;;;-3.73;70.24
50672;BME280;46021;55.882;37.654;2023-02-15T03:42:17;99926.44;;;-3.79;70.08
50672;BME280;46021;55.882;37.654;2023-02-15T03:44:50;99928.06;;;-3.81;70.78
50672;BME280;46021;55.882;37.654;2023-02-15T03:47:21;99925.59;;;-3.80;69.48
50672;BME280;46021;55.882;37.654;2023-02-15T03:49:54;99934.81;;;-3.83;70.71
50672;BME280;46021;55.882;37.654;2023-02-15T03:52:25;99921.16;;;-3.85;70.87
50672;BME280;46021;55.882;37.654;2023-02-15T03:54:53;99931.44;;;-3.82;69.90
50672;BME280;46021;55.882;37.654;2023-02-15T03:57:23;99935.66;;;-3.83;71.08
50672;BME280;46021;55.882;37.654;2023-02-15T04:00:13;99933.22;;;-3.80;69.95
50672;BME280;46021;55.882;37.654;2023-02-15T04:03:17;99933.16;;;-3.81;69.75
50672;BME280;46021;55.882;37.654;2023-02-15T04:05:50;99929.72;;;-3.83;70.05
50672;BME280;46021;55.882;37.654;2023-02-15T04:08:18;99934.81;;;-3.83;70.44
50672;BME280;46021;55.882;37.654;2023-02-15T04:10:45;99930.00;;;-4.01;70.28
50672;BME280;46021;55.882;37.654;2023-02-15T04:13:23;99934.06;;;-4.08;69.85
50672;BME280;46021;55.882;37.654;2023-02-15T04:15:53;99922.97;;;-4.10;69.89
50672;BME280;46021;55.882;37.654;2023-02-15T04:18:32;99935.78;;;-4.07;70.26
50672;BME280;46021;55.882;37.654;2023-02-15T04:21:19;99934.97;;;-4.06;69.17
50672;BME280;46021;55.882;37.654;2023-02-15T04:24:05;99920.50;;;-4.07;70.44
50672;BME280;46021;55.882;37.654;2023-02-15T04:26:50;99933.28;;;-4.05;68.86
50672;BME280;46021;55.882;37.654;2023-02-15T04:29:18;99940.78;;;-4.10;69.16
50672;BME280;46021;55.882;37.654;2023-02-15T04:31:45;99932.03;;;-4.18;68.91
50672;BME280;46021;55.882;37.654;2023-02-15T04:34:13;99932.03;;;-4.18;69.19
50672;BME280;46021;55.882;37.654;2023-02-15T04:36:41;99936.75;;;-4.31;68.68
50672;BME280;46021;55.882;37.654;2023-02-15T04:39:09;99937.66;;;-4.28;69.25
50672;BME280;46021;55.882;37.654;2023-02-15T04:41:39;99936.13;;;-4.23;68.49
50672;BME280;46021;55.882;37.654;2023-02-15T04:44:06;99933.59;;;-4.23;68.58
50672;BME280;46021;55.882;37.654;2023-02-15T04:46:33;99931.97;;;-4.20;70.01
50672;BME280;46021;55.882;37.654;2023-02-15T04:49:01;99930.31;;;-4.19;68.40
50672;BME280;46021;55.882;37.654;2023-02-15T04:51:28;99936.75;;;-4.31;68.65
50672;BME280;46021;55.882;37.654;2023-02-15T04:53:57;99930.03;;;-4.28;68.17
50672;BME280;46021;55.882;37.654;2023-02-15T04:56:24;99930.88;;;-4.28;69.10
50672;BME280;46021;55.882;37.654;2023-02-15T04:58:51;99938.69;;;-4.23;69.58
50672;BME280;46021;55.882;37.654;2023-02-15T05:01:18;99934.25;;;-4.29;68.69
50672;BME280;46021;55.882;37.654;2023-02-15T05:03:45;99947.06;;;-4.26;69.00
50672;BME280;46021;55.882;37.654;2023-02-15T05:06:12;99947.00;;;-4.27;69.27
50672;BME280;46021;55.882;37.654;2023-02-15T05:08:39;99947.91;;;-4.25;67.96
50672;BME280;46021;55.882;37.654;2023-02-15T05:11:08;99949.53;;;-4.27;69.38
50672;BME280;46021;55.882;37.654;2023-02-15T05:13:35;99957.97;;;-4.30;68.94
50672;BME280;46021;55.882;37.654;2023-02-15T05:16:02;99947.53;;;-4.38;68.21
50672;BME280;46021;55.882;37.654;2023-02-15T05:18:29;99959.41;;;-4.38;68.41
50672;BME280;46021;55.882;37.654;2023-02-15T05:20:57;99960.41;;;-4.33;68.67
50672;BME280;46021;55.882;37.654;2023-02-15T05:23:24;99959.41;;;-4.38;67.58
50672;BME280;46021;55.882;37.654;2023-02-15T05:25:51;99951.53;;;-4.46;68.35
50672;BME280;46021;55.882;37.654;2023-02-15T05:28:38;99959.94;;;-4.47;68.30
50672;BME280;46021;55.882;37.654;2023-02-15T05:31:07;99947.22;;;-4.47;68.85
50672;BME280;46021;55.882;37.654;2023-02-15T05:33:34;99954.66;;;-4.53;68.37
50672;BME280;46021;55.882;37.654;2023-02-15T05:36:02;99963.41;;;-4.45;68.03
50672;BME280;46021;55.882;37.654;2023-02-15T05:38:30;99955.59;;;-4.51;67.82
50672;BME280;46021;55.882;37.654;2023-02-15T05:40:57;99968.81;;;-4.36;68.05
50672;BME280;46021;55.882;37.654;2023-02-15T05:43:24;99970.50;;;-4.36;68.39
50672;BME280;46021;55.882;37.654;2023-02-15T05:45:54;99964.75;;;-4.31;68.61
50672;BME280;46021;55.882;37.654;2023-02-15T05:48:23;99970.31;;;-4.41;67.69
50672;BME280;46021;55.882;37.654;2023-02-15T05:50:57;99970.38;;;-4.39;66.77
50672;BME280;46021;55.882;37.654;2023-02-15T05:53:25;99979.19;;;-4.29;67.08
50672;BME280;46021;55.882;37.654;2023-02-15T05:55:53;99973.41;;;-4.24;67.18
50672;BME280;46021;55.882;37.654;2023-02-15T05:58:25;99977.03;;;-4.17;68.22
50672;BME280;46021;55.882;37.654;2023-02-15T06:00:54;99981.31;;;-4.16;67.97
50672;BME280;46021;55.882;37.654;2023-02-15T06:03:21;99982.22;;;-4.14;67.74
50672;BME280;46021;55.882;37.654;2023-02-15T06:05:49;99991.47;;;-4.16;67.33
50672;BME280;46021;55.882;37.654;2023-02-15T06:08:16;99991.59;;;-4.13;67.18
50672;BME280;46021;55.882;37.654;2023-02-15T06:10:45;99995.72;;;-4.17;66.95
50672;BME280;46021;55.882;37.654;2023-02-15T06:13:12;99999.78;;;-4.22;67.28
50672;BME280;46021;55.882;37.654;2023-02-15T06:15:39;100006.44;;;-4.25;66.39
50672;BME280;46021;55.882;37.654;2023-02-15T06:18:08;100003.22;;;-4.21;67.56
50672;BME280;46021;55.882;37.654;2023-02-15T06:20:35;100004.94;;;-4.20;67.57
50672;BME280;46021;55.882;37.654;2023-02-15T06:23:02;100007.22;;;-4.28;66.30
50672;BME280;46021;55.882;37.654;2023-02-15T06:25:29;100011.53;;;-4.25;67.82
50672;BME280;46021;55.882;37.654;2023-02-15T06:27:56;100015.22;;;-4.17;66.99
50672;BME280;46021;55.882;37.654;2023-02-15T06:30:23;100010.03;;;-4.20;67.57
50672;BME280;46021;55.882;37.654;2023-02-15T06:32:50;100017.34;;;-4.04;68.06
50672;BME280;46021;55.882;37.654;2023-02-15T06:35:19;100014.28;;;-3.94;67.58
50672;BME280;46021;55.882;37.654;2023-02-15T06:37:47;100012.63;;;-3.92;67.20
50672;BME280;46021;55.882;37.654;2023-02-15T06:40:15;100016.31;;;-3.83;66.72
50672;BME280;46021;55.882;37.654;2023-02-15T06:42:42;100007.16;;;-4.04;65.78
50672;BME280;46021;55.882;37.654;2023-02-15T06:45:10;100010.63;;;-4.02;66.31
50672;BME280;46021;55.882;37.654;2023-02-15T06:47:37;100013.06;;;-4.05;66.23
50672;BME280;46021;55.882;37.654;2023-02-15T06:50:05;100009.66;;;-4.05;66.26
50672;BME280;46021;55.882;37.654;2023-02-15T06:52:34;100004.75;;;-3.99;65.80
50672;BME280;46021;55.882;37.654;2023-02-15T06:55:01;100011.09;;;-3.86;65.97
50672;BME280;46021;55.882;37.654;2023-02-15T06:57:30;100010.09;;;-3.92;65.05
50672;BME280;46021;55.882;37.654;2023-02-15T06:59:58;100009.56;;;-3.81;66.09
50672;BME280;46021;55.882;37.654;2023-02-15T07:02:25;100010.84;;;-3.67;66.68
50672;BME280;46021;55.882;37.654;2023-02-15T07:04:53;100024.72;;;-3.59;66.38
50672;BME280;46021;55.882;37.654;2023-02-15T07:07:20;100019.63;;;-3.59;65.77
50672;BME280;46021;55.882;37.654;2023-02-15T07:09:48;100017.97;;;-3.57;66.32
50672;BME280;46021;55.882;37.654;2023-02-15T07:12:15;100024.03;;;-3.53;66.10
50672;BME280;46021;55.882;37.654;2023-02-15T07:15:13;100025.16;;;-3.43;66.97
50672;BME280;46021;55.882;37.654;2023-02-15T07:17:41;100025.78;;;-3.50;67.03
50672;BME280;46021;55.882;37.654;2023-02-15T07:20:10;100011.88;;;-3.62;65.89
50672;BME280;46021;55.882;37.654;2023-02-15T07:22:38;100021.03;;;-3.40;66.77
50672;BME280;46021;55.882;37.654;2023-02-15T07:25:08;100036.63;;;-3.29;65.93
50672;BME280;46021;55.882;37.654;2023-02-15T07:27:36;100031.44;;;-3.32;65.38
50672;BME280;46021;55.882;37.654;2023-02-15T07:30:04;100029.88;;;-3.28;65.48
50672;BME280;46021;55.882;37.654;2023-02-15T07:32:32;100031.72;;;-3.23;65.83
50672;BME280;46021;55.882;37.654;2023-02-15T07:34:59;100039.38;;;-3.23;66.09
50672;BME280;46021;55.882;37.654;2023-02-15T07:37:27;100036.19;;;-3.16;66.20
50672;BME280;46021;55.882;37.654;2023-02-15T07:39:54;100019.25;;;-3.12;65.45
50672;BME280;46021;55.882;37.654;2023-02-15T07:42:23;100027.50;;;-3.22;65.19
50672;BME280;46021;55.882;37.654;2023-02-15T07:44:50;100034.13;;;-3.27;64.76
50672;BME280;46021;55.882;37.654;2023-02-15T07:47:18;100023.84;;;-3.30;65.74
50672;BME280;46021;55.882;37.654;2023-02-15T07:49:45;100025.28;;;-3.39;65.38
50672;BME280;46021;55.882;37.654;2023-02-15T07:52:14;100028.97;;;-3.30;65.43
50672;BME280;46021;55.882;37.654;2023-02-15T07:54:42;100033.38;;;-3.23;65.76
50672;BME280;46021;55.882;37.654;2023-02-15T07:57:09;100043.91;;;-3.13;64.79
50672;BME280;46021;55.882;37.654;2023-02-15T07:59:37;100038.47;;;-3.25;65.81
50672;BME280;46021;55.882;37.654;2023-02-15T08:02:05;100041.13;;;-3.20;64.76
50672;BME280;46021;55.882;37.654;2023-02-15T08:04:35;100050.81;;;-3.10;65.02
50672;BME280;46021;55.882;37.654;2023-02-15T08:07:02;100047.31;;;-3.12;64.44
50672;BME280;46021;55.882;37.654;2023-02-15T08:09:29;100046.91;;;-2.97;64.68
50672;BME280;46021;55.882;37.654;2023-02-15T08:11:56;100051.09;;;-2.99;65.18
50672;BME280;46021;55.882;37.654;2023-02-15T08:14:24;100051.72;;;-3.08;65.03
50672;BME280;46021;55.882;37.654;2023-02-15T08:16:53;100058.78;;;-2.98;64.71
50672;BME280;46021;55.882;37.654;2023-02-15T08:19:23;100059.75;;;-2.94;64.37
50672;BME280;46021;55.882;37.654;2023-02-15T08:21:52;100055.34;;;-3.00;64.81
50672;BME280;46021;55.882;37.654;2023-02-15T08:24:22;100071.09;;;-3.13;64.08
50672;BME280;46021;55.882;37.654;2023-02-15T08:26:50;100052.69;;;-3.31;64.24
50672;BME280;46021;55.882;37.654;2023-02-15T08:29:20;100073.81;;;-3.36;65.00
50672;BME280;46021;55.882;37.654;2023-02-15T08:31:48;100075.53;;;-3.36;65.41
50672;BME280;46021;55.882;37.654;2023-02-15T08:34:19;100062.66;;;-3.39;64.38
50672;BME280;46021;55.882;37.654;2023-02-15T08:36:46;100070.59;;;-3.30;64.79
50672;BME280;46021;55.882;37.654;2023-02-15T08:39:14;100057.97;;;-3.27;65.28
50672;BME280;46021;55.882;37.654;2023-02-15T08:41:43;100058.88;;;-3.25;64.66
50672;BME280;46021;55.882;37.654;2023-02-15T08:44:10;100071.06;;;-3.15;64.49
50672;BME280;46021;55.882;37.654;2023-02-15T08:46:39;100060.28;;;-3.06;64.26
50672;BME280;46021;55.882;37.654;2023-02-15T08:49:07;100047.63;;;-3.01;64.96
50672;BME280;46021;55.882;37.654;2023-02-15T08:51:37;100063.38;;;-2.86;64.38
50672;BME280;46021;55.882;37.654;2023-02-15T08:54:06;100068.66;;;-2.80;63.91
50672;BME280;46021;55.882;37.654;2023-02-15T08:56:35;100063.38;;;-2.86;63.66
50672;BME280;46021;55.882;37.654;2023-02-15T08:59:03;100047.56;;;-3.04;63.23
50672;BME280;46021;55.882;37.654;2023-02-15T09:01:33;100075.06;;;-2.94;63.25
50672;BME280;46021;55.882;37.654;2023-02-15T09:04:02;100068.41;;;-2.87;63.73
50672;BME280;46021;55.882;37.654;2023-02-15T09:06:31;100078.41;;;-2.95;63.72
50672;BME280;46021;55.882;37.654;2023-02-15T09:08:59;100081.38;;;-2.81;64.30
50672;BME280;46021;55.882;37.654;2023-02-15T09:11:28;100064.22;;;-2.87;64.29
50672;BME280;46021;55.882;37.654;2023-02-15T09:13:57;100066.75;;;-2.87;63.14
50672;BME280;46021;55.882;37.654;2023-02-15T09:16:27;100061.41;;;-2.96;64.07
50672;BME280;46021;55.882;37.654;2023-02-15T09:18:55;100079.41;;;-2.90;64.64
50672;BME280;46021;55.882;37.654;2023-02-15T09:21:25;100073.50;;;-2.89;64.57
50672;BME280;46021;55.882;37.654;2023-02-15T09:23:56;100072.03;;;-2.81;63.59
50672;BME280;46021;55.882;37.654;2023-02-15T09:26:26;100083.97;;;-2.80;64.51
50672;BME280;46021;55.882;37.654;2023-02-15T09:28:55;100080.75;;;-2.72;64.41
50672;BME280;46021;55.882;37.654;2023-02-15T09:31:24;100078.94;;;-2.77;62.71
50672;BME280;46021;55.882;37.654;2023-02-15T09:33:52;100077.28;;;-2.75;64.33
50672;BME280;46021;55.882;37.654;2023-02-15T09:36:21;100087.00;;;-2.63;64.05
50672;BME280;46021;55.882;37.654;2023-02-15T09:38:54;100075.66;;;-2.72;63.66
50672;BME280;46021;55.882;37.654;2023-02-15T09:41:46;100094.34;;;-2.73;63.57
50672;BME280;46021;55.882;37.654;2023-02-15T09:44:20;100087.28;;;-2.52;63.68
50672;BME280;46021;55.882;37.654;2023-02-15T09:47:15;100101.41;;;-2.33;63.42
50672;BME280;46021;55.882;37.654;2023-02-15T09:49:48;100108.94;;;-2.06;63.92
50672;BME280;46021;55.882;37.654;2023-02-15T09:52:44;100095.94;;;-2.15;61.49
50672;BME280;46021;55.882;37.654;2023-02-15T09:55:33;100098.97;;;-1.95;62.39
50672;BME280;46021;55.882;37.654;2023-02-15T09:58:13;100100.50;;;-2.03;61.85
50672;BME280;46021;55.882;37.654;2023-02-15T10:00:49;100097.75;;;-2.11;61.83
50672;BME280;46021;55.882;37.654;2023-02-15T10:03:35;100097.41;;;-2.23;62.11
50672;BME280;46021;55.882;37.654;2023-02-15T10:06:19;100103.50;;;-2.50;62.00
50672;BME280;46021;55.882;37.654;2023-02-15T10:09:02;100099.22;;;-2.51;62.73
50672;BME280;46021;55.882;37.654;2023-02-15T10:11:43;100108.84;;;-2.41;62.05
50672;BME280;46021;55.882;37.654;2023-02-15T10:14:31;100104.38;;;-2.49;62.12
50672;BME280;46021;55.882;37.654;2023-02-15T10:17:14;100116.34;;;-2.47;63.03
50672;BME280;46021;55.882;37.654;2023-02-15T10:19:55;100112.25;;;-2.72;62.67
50672;BME280;46021;55.882;37.654;2023-02-15T10:22:35;100119.19;;;-2.68;62.12
50672;BME280;46021;55.882;37.654;2023-02-15T10:25:26;100121.94;;;-2.60;63.32
50672;BME280;46021;55.882;37.654;2023-02-15T10:28:00;100114.59;;;-2.49;63.34
50672;BME280;46021;55.882;37.654;2023-02-15T10:30:38;100113.72;;;-2.50;62.85
50672;BME280;46021;55.882;37.654;2023-02-15T10:33:16;100113.91;;;-2.44;62.16
50672;BME280;46021;55.882;37.654;2023-02-15T10:35:53;100127.03;;;-2.90;61.94
50672;BME280;46021;55.882;37.654;2023-02-15T10:38:33;100110.44;;;-3.05;61.79
50672;BME280;46021;55.882;37.654;2023-02-15T10:41:18;100138.91;;;-2.91;63.22
50672;BME280;46021;55.882;37.654;2023-02-15T10:44:09;100141.22;;;-2.99;62.62
50672;BME280;46021;55.882;37.654;2023-02-15T10:46:55;100134.63;;;-2.92;62.57
50672;BME280;46021;55.882;37.654;2023-02-15T10:49:46;100154.28;;;-3.17;62.79
50672;BME280;46021;55.882;37.654;2023-02-15T10:52:27;100159.19;;;-3.23;63.15
50672;BME280;46021;55.882;37.654;2023-02-15T10:55:04;100151.34;;;-3.29;63.98
50672;BME280;46021;55.882;37.654;2023-02-15T10:57:42;100155.75;;;-3.23;63.60
50672;BME280;46021;55.882;37.654;2023-02-15T11:00:18;100162.47;;;-3.27;64.23
50672;BME280;46021;55.882;37.654;2023-02-15T11:03:05;100167.13;;;-3.14;64.07
50672;BME280;46021;55.882;37.654;2023-02-15T11:05:42;100162.38;;;-3.30;63.83
50672;BME280;46021;55.882;37.654;2023-02-15T11:08:15;100171.91;;;-3.24;64.13
50672;BME280;46021;55.882;37.654;2023-02-15T11:10:47;100173.53;;;-3.26;63.22
50672;BME280;46021;55.882;37.654;2023-02-15T11:13:18;100169.69;;;-3.14;62.60
50672;BME280;46021;55.882;37.654;2023-02-15T11:15:50;100169.19;;;-3.29;63.46
50672;BME280;46021;55.882;37.654;2023-02-15T11:18:25;100179.19;;;-3.35;62.84
50672;BME280;46021;55.882;37.654;2023-02-15T11:20:59;100181.13;;;-3.54;64.05
50672;BME280;46021;55.882;37.654;2023-02-15T11:23:28;100180.63;;;-3.43;63.99
50672;BME280;46021;55.882;37.654;2023-02-15T11:25:57;100157.50;;;-3.49;63.16
50672;BME280;46021;55.882;37.654;2023-02-15T11:28:29;100172.28;;;-3.39;62.37
50672;BME280;46021;55.882;37.654;2023-02-15T11:31:02;100180.28;;;-3.28;62.54
50672;BME280;46021;55.882;37.654;2023-02-15T11:33:35;100179.97;;;-3.38;63.40
50672;BME280;46021;55.882;37.654;2023-02-15T11:36:08;100194.69;;;-3.29;64.00
50672;BME280;46021;55.882;37.654;2023-02-15T11:38:38;100184.59;;;-3.26;63.11
50672;BME280;46021;55.882;37.654;2023-02-15T11:41:10;100191.06;;;-3.10;64.03
50672;BME280;46021;55.882;37.654;2023-02-15T11:43:41;100188.44;;;-3.11;63.85
50672;BME280;46021;55.882;37.654;2023-02-15T11:46:12;100197.19;;;-3.03;62.85
50672;BME280;46021;55.882;37.654;2023-02-15T11:48:42;100193.16;;;-2.97;63.49
50672;BME280;46021;55.882;37.654;2023-02-15T11:51:12;100197.47;;;-2.94;63.16
50672;BME280;46021;55.882;37.654;2023-02-15T11:53:42;100190.16;;;-3.10;62.38
50672;BME280;46021;55.882;37.654;2023-02-15T11:56:12;100205.25;;;-2.91;62.83
50672;BME280;46021;55.882;37.654;2023-02-15T11:58:43;100164.66;;;-3.10;62.17
50672;BME280;46021;55.882;37.654;2023-02-15T12:01:16;100217.84;;;-3.23;62.82
50672;BME280;46021;55.882;37.654;2023-02-15T12:03:48;100223.66;;;-3.27;62.73
50672;BME280;46021;55.882;37.654;2023-02-15T12:06:24;100219.59;;;-3.20;62.76
50672;BME280;46021;55.882;37.654;2023-02-15T12:08:57;100217.97;;;-3.18;63.48
50672;BME280;46021;55.882;37.654;2023-02-15T12:11:33;100215.47;;;-3.17;62.86
50672;BME280;46021;55.882;37.654;2023-02-15T12:14:02;100218.34;;;-3.33;62.38
50672;BME280;46021;55.882;37.654;2023-02-15T12:16:39;100230.47;;;-3.26;62.47
50672;BME280;46021;55.882;37.654;2023-02-15T12:19:21;100227.31;;;-3.19;63.10
50672;BME280;46021;55.882;37.654;2023-02-15T12:21:51;100223.44;;;-3.33;61.95
50672;BME280;46021;55.882;37.654;2023-02-15T12:24:22;100234.28;;;-3.39;62.53
50672;BME280;46021;55.882;37.654;2023-02-15T12:26:57;100221.63;;;-3.63;61.77
50672;BME280;46021;55.882;37.654;2023-02-15T12:29:28;100227.72;;;-3.58;62.61
50672;BME280;46021;55.882;37.654;2023-02-15T12:31:57;100233.69;;;-3.57;61.89
50672;BME280;46021;55.882;37.654;2023-02-15T12:34:29;100243.91;;;-3.57;63.03
50672;BME280;46021;55.882;37.654;2023-02-15T12:37:00;100243.25;;;-3.51;63.20
50672;BME280;46021;55.882;37.654;2023-02-15T12:39:30;100241.13;;;-3.63;63.47
50672;BME280;46021;55.882;37.654;2023-02-15T12:42:00;100244.22;;;-3.72;63.58
50672;BME280;46021;55.882;37.654;2023-02-15T12:44:30;100257.28;;;-3.63;62.53
50672;BME280;46021;55.882;37.654;2023-02-15T12:47:00;100254.75;;;-3.63;62.26
50672;BME280;46021;55.882;37.654;2023-02-15T12:49:30;100244.19;;;-3.74;63.21
50672;BME280;46021;55.882;37.654;2023-02-15T12:51:59;100255.88;;;-3.79;62.76
50672;BME280;46021;55.882;37.654;2023-02-15T12:54:33;100265.69;;;-3.65;62.52
50672;BME280;46021;55.882;37.654;2023-02-15T12:57:17;100268.09;;;-3.70;61.94
50672;BME280;46021;55.882;37.654;2023-02-15T12:59:52;100266.53;;;-3.65;63.12
50672;BME280;46021;55.882;37.654;2023-02-15T13:02:33;100267.78;;;-3.54;63.38
50672;BME280;46021;55.882;37.654;2023-02-15T13:05:16;100267.94;;;-3.49;63.53
50672;BME280;46021;55.882;37.654;2023-02-15T13:07:46;100271.28;;;-3.51;62.68
50672;BME280;46021;55.882;37.654;2023-02-15T13:10:22;100272.06;;;-3.53;62.93